Time;durP1;ratioP1;P1;durP2;ratioP2;P2;SDS_P1;SDS_P2;PMS_P1;PMS_P2;Temp;Humidity;BMP_temperature;BMP_pressure;BME280_temperature;BME280_humidity;BME280_pressure;Samples;Min_cycle;Max_cycle;Signal;HPM_P1;HPM_P2
2021/12/10 00:01:17;;;;;;;103.95;59.27;;;;;;;2.81;83.56;98988.37;2880533;82;21082;-67
2021/12/10 00:05:27;;;;;;;108.37;57.78;;;;;;;2.79;83.71;98977.14;2838800;82;21039;-67
2021/12/10 00:09:37;;;;;;;103.42;59.42;;;;;;;2.70;83.61;98975.50;2826806;84;21054;-67
2021/12/10 00:13:43;;;;;;;98.55;60.35;;;;;;;2.64;84.02;98965.44;2826170;84;21043;-67
2021/12/10 00:17:42;;;;;;;95.85;55.60;;;;;;;2.56;84.25;98961.22;2826628;84;21026;-67
2021/12/10 00:21:44;;;;;;;91.78;58.87;;;;;;;2.53;84.22;98953.53;2826957;84;21030;-67
2021/12/10 00:25:51;;;;;;;95.35;55.20;;;;;;;2.43;84.33;98960.75;2827029;84;21014;-67
2021/12/10 00:30:01;;;;;;;76.97;49.50;;;;;;;2.15;85.22;98964.42;2849619;81;21035;-66
2021/12/10 00:34:25;;;;;;;97.95;57.85;;;;;;;1.93;86.17;98954.53;2836062;84;21066;-67
2021/12/10 00:38:27;;;;;;;97.08;61.20;;;;;;;1.66;87.83;98958.07;2836971;84;21021;-66
2021/12/10 00:42:32;;;;;;;124.35;76.87;;;;;;;1.50;88.91;98955.63;2871060;82;20989;-67
2021/12/10 00:46:35;;;;;;;114.95;64.45;;;;;;;1.48;88.93;98942.61;2887525;82;21054;-67
2021/12/10 00:50:42;;;;;;;120.67;67.82;;;;;;;1.53;88.59;98944.94;2887106;82;21028;-67
2021/12/10 00:54:44;;;;;;;121.22;73.42;;;;;;;1.63;88.32;98949.11;2887325;82;21038;-66
2021/12/10 00:58:46;;;;;;;119.45;72.30;;;;;;;1.69;88.04;98948.69;2835709;84;20970;-67
2021/12/10 01:02:49;;;;;;;118.82;68.90;;;;;;;1.74;88.24;98940.53;2887177;82;21020;-67
2021/12/10 01:06:53;;;;;;;123.65;70.17;;;;;;;1.68;88.37;98941.31;2835787;84;21009;-67
2021/12/10 01:11:00;;;;;;;112.65;67.80;;;;;;;1.67;88.19;98929.61;2886887;82;20952;-66
2021/12/10 01:23:56;;;;;;;107.40;70.67;;;;;;;2.07;88.26;98886.25;2835707;84;21092;-66
2021/12/10 01:27:56;;;;;;;94.65;59.75;;;;;;;2.21;86.92;98882.66;2887085;82;21091;-66
2021/12/10 01:31:59;;;;;;;115.82;57.35;;;;;;;2.31;85.35;98888.11;2835890;84;21013;-67
2021/12/10 01:36:06;;;;;;;112.25;63.75;;;;;;;2.30;84.79;98881.67;2887352;82;21666;-67
2021/12/10 01:40:08;;;;;;;112.12;67.30;;;;;;;2.33;84.32;98874.89;2886432;82;21024;-67
2021/12/10 01:44:16;;;;;;;108.23;63.50;;;;;;;2.42;84.71;98862.41;2887124;82;21004;-67
2021/12/10 01:48:26;;;;;;;116.55;64.65;;;;;;;2.46;83.92;98853.86;2887473;82;20941;-67
2021/12/10 01:52:28;;;;;;;108.63;66.95;;;;;;;2.49;83.22;98836.57;2892610;82;20975;-66
2021/12/10 01:56:34;;;;;;;107.75;64.72;;;;;;;2.47;82.53;98830.59;2887706;82;20981;-66
2021/12/10 02:00:40;;;;;;;119.45;67.50;;;;;;;2.39;82.00;98821.50;2887633;81;21009;-66
2021/12/10 02:04:44;;;;;;;111.08;62.08;;;;;;;2.35;81.61;98820.02;2887498;82;21023;-66
2021/12/10 02:08:46;;;;;;;111.25;65.65;;;;;;;2.21;80.75;98815.75;2835979;83;21017;-66
2021/12/10 02:12:49;;;;;;;119.42;68.67;;;;;;;2.14;81.14;98820.59;2887320;82;21062;-67
2021/12/10 02:16:55;;;;;;;106.72;65.45;;;;;;;2.21;82.26;98822.80;2887374;82;20913;-66
2021/12/10 02:21:08;;;;;;;114.72;68.62;;;;;;;2.25;81.94;98808.02;2884560;82;21011;-66
2021/12/10 02:25:09;;;;;;;113.97;69.53;;;;;;;2.30;82.29;98802.45;2867048;83;21029;-66
2021/12/10 02:29:14;;;;;;;118.80;71.10;;;;;;;2.35;82.10;98802.95;2867316;83;21113;-66
2021/12/10 02:33:18;;;;;;;124.10;71.28;;;;;;;2.41;82.47;98805.63;2866948;81;21050;-67
2021/12/10 02:37:21;;;;;;;136.65;78.28;;;;;;;2.41;81.76;98810.41;2866710;83;21066;-66
2021/12/10 02:41:28;;;;;;;130.00;73.05;;;;;;;2.27;81.54;98811.86;2867336;83;21085;-67
2021/12/10 02:45:31;;;;;;;132.07;73.57;;;;;;;2.12;82.01;98819.86;2867070;83;20991;-67
2021/12/10 02:49:33;;;;;;;131.25;73.78;;;;;;;2.04;82.36;98809.54;2867149;82;21003;-66
2021/12/10 02:53:41;;;;;;;110.65;68.37;;;;;;;1.97;82.85;98813.91;2866955;83;21074;-67
2021/12/10 02:57:39;;;;;;;110.57;63.75;;;;;;;1.96;83.31;98810.08;2866496;83;21022;-67
2021/12/10 03:01:46;;;;;;;126.97;73.72;;;;;;;1.68;84.36;98820.72;2866867;83;21034;-67
2021/12/10 03:05:48;;;;;;;115.88;70.62;;;;;;;1.35;86.54;98818.58;2866883;83;20999;-67
2021/12/10 03:09:53;;;;;;;137.25;75.32;;;;;;;1.17;87.90;98820.17;2866822;83;21022;-66
2021/12/10 03:13:55;;;;;;;114.72;69.10;;;;;;;1.08;88.47;98818.19;2866771;82;21067;-67
2021/12/10 03:18:00;;;;;;;133.45;72.35;;;;;;;1.08;88.95;98800.70;2866955;81;21011;-66
2021/12/10 03:22:04;;;;;;;135.22;70.40;;;;;;;1.04;89.10;98796.59;2866934;83;21030;-66
2021/12/10 03:26:05;;;;;;;131.03;71.62;;;;;;;1.02;89.51;98794.55;2866772;83;21673;-67
2021/12/10 03:30:12;;;;;;;140.68;83.27;;;;;;;1.06;89.48;98806.97;2868541;83;21018;-67
2021/12/10 03:34:13;;;;;;;;;;;;;;;1.15;89.11;98801.11;2874025;83;20983;-66
2021/12/10 03:38:21;;;;;;;134.27;73.02;;;;;;;1.10;89.72;98801.89;2841382;84;20424;-66
2021/12/10 03:42:24;;;;;;;123.80;76.60;;;;;;;1.05;90.05;98793.52;2871627;83;21066;-67
2021/12/10 03:46:26;;;;;;;162.18;86.10;;;;;;;1.02;90.36;98789.79;2871501;83;20955;-66
2021/12/10 03:50:31;;;;;;;128.65;75.95;;;;;;;0.93;91.10;98793.38;2871628;83;21002;-66
2021/12/10 03:54:35;;;;;;;122.00;72.47;;;;;;;0.93;91.45;98780.28;2871612;82;21026;-66
2021/12/10 03:58:37;;;;;;;145.00;73.33;;;;;;;0.88;91.72;98769.28;2876931;81;21018;-66
2021/12/10 04:02:39;;;;;;;144.13;78.10;;;;;;;0.80;92.14;98768.47;2881114;82;21017;-68
2021/12/10 04:06:41;;;;;;;143.90;79.60;;;;;;;0.71;92.82;98793.95;2880983;81;21010;-67
2021/12/10 04:10:44;;;;;;;131.57;74.72;;;;;;;0.75;92.44;98790.19;2881030;82;21006;-67
2021/12/10 04:14:48;;;;;;;123.20;73.30;;;;;;;0.65;92.85;98789.95;2881124;82;20982;-67
2021/12/10 04:18:53;;;;;;;164.93;117.03;;;;;;;0.74;91.84;98785.05;2881024;82;21002;-68
2021/12/10 04:22:58;;;;;;;128.30;74.35;;;;;;;0.76;91.32;98764.84;2880937;82;21356;-72
2021/12/10 04:27:03;;;;;;;132.37;79.22;;;;;;;0.86;91.92;98762.00;2880053;82;20982;-72
2021/12/10 04:31:05;;;;;;;132.20;75.83;;;;;;;0.93;89.77;98754.58;2883732;82;21076;-71
2021/12/10 04:35:08;;;;;;;130.30;76.90;;;;;;;0.99;89.25;98745.84;2886145;82;21091;-72
2021/12/10 04:39:11;;;;;;;118.05;71.07;;;;;;;1.06;88.40;98738.88;2834722;84;21048;-70
2021/12/10 04:43:14;;;;;;;120.82;73.37;;;;;;;1.05;87.42;98741.13;2886483;82;20925;-71
2021/12/10 04:47:17;;;;;;;134.67;72.17;;;;;;;1.09;87.29;98732.12;2886332;82;20991;-71
2021/12/10 04:51:23;;;;;;;133.95;71.82;;;;;;;1.09;86.19;98732.98;2835208;84;21073;-71
2021/12/10 04:55:25;;;;;;;117.53;67.00;;;;;;;0.99;85.51;98740.61;2886682;82;21020;-71
2021/12/10 04:59:30;;;;;;;126.25;73.67;;;;;;;0.85;86.45;98732.83;2887112;82;20963;-71
2021/12/10 05:03:32;;;;;;;121.65;71.87;;;;;;;0.83;86.94;98733.41;2870445;82;21034;-70
2021/12/10 05:07:36;;;;;;;127.25;75.78;;;;;;;0.70;88.53;98739.44;2866471;81;21042;-70
2021/12/10 05:11:38;;;;;;;164.20;92.30;;;;;;;0.63;89.13;98738.18;2877403;82;21037;-70
2021/12/10 05:15:40;;;;;;;128.82;78.25;;;;;;;0.66;89.42;98732.74;2882641;82;21512;-74
2021/12/10 05:19:42;;;;;;;126.12;75.17;;;;;;;0.63;90.41;98731.64;2865099;83;21062;-76
2021/12/10 05:23:44;;;;;;;123.25;69.15;;;;;;;0.64;90.75;98724.16;2873325;82;21066;-73
2021/12/10 05:27:48;;;;;;;126.87;74.00;;;;;;;0.73;90.21;98721.86;2868556;82;21078;-72
2021/12/10 05:31:51;;;;;;;128.15;71.07;;;;;;;0.87;89.96;98707.84;2882631;82;21050;-75
2021/12/10 05:35:53;;;;;;;125.18;76.80;;;;;;;0.96;88.93;98714.61;2874608;82;21026;-74
2021/12/10 05:39:54;;;;;;;107.52;69.45;;;;;;;1.00;88.72;98715.25;2876156;81;21014;-72
2021/12/10 05:43:57;;;;;;;119.57;62.50;;;;;;;0.89;88.38;98711.22;2875276;82;21042;-76
2021/12/10 05:47:59;;;;;;;94.47;59.80;;;;;;;0.75;89.57;98710.81;2883451;82;21022;-76
2021/12/10 05:52:04;;;;;;;102.92;57.40;;;;;;;0.69;90.41;98703.74;2883074;82;21033;-76
2021/12/10 05:56:07;;;;;;;98.22;58.95;;;;;;;0.61;91.20;98702.57;2882885;82;21014;-75
2021/12/10 06:00:15;;;;;;;108.07;64.05;;;;;;;0.66;91.18;98697.41;2883011;82;21002;-76
2021/12/10 06:04:22;;;;;;;94.87;60.92;;;;;;;0.67;91.39;98695.16;2882878;82;21050;-76
2021/12/10 06:08:21;;;;;;;95.77;57.15;;;;;;;0.93;91.29;98690.43;2882249;82;21073;-76
2021/12/10 06:12:23;;;;;;;95.72;56.92;;;;;;;1.16;90.39;98694.08;2883192;82;21014;-76
2021/12/10 06:16:25;;;;;;;92.72;56.98;;;;;;;1.06;89.56;98703.04;2883294;82;21018;-76
2021/12/10 06:20:31;;;;;;;88.87;60.25;;;;;;;0.96;90.40;98715.09;2883242;82;20931;-75
2021/12/10 06:24:33;;;;;;;95.38;63.08;;;;;;;1.06;90.46;98714.00;2881001;82;21035;-76
2021/12/10 06:28:36;;;;;;;111.68;73.55;;;;;;;1.22;90.08;98719.03;2883793;82;21023;-75
2021/12/10 06:32:38;;;;;;;117.25;73.50;;;;;;;1.37;89.30;98717.12;2883503;82;21052;-75
2021/12/10 06:36:41;;;;;;;106.07;65.57;;;;;;;1.50;88.88;98715.34;2884017;82;21564;-75
2021/12/10 06:40:44;;;;;;;106.37;62.70;;;;;;;1.60;88.37;98711.61;2884312;82;21000;-75
2021/12/10 06:44:46;;;;;;;131.35;91.20;;;;;;;1.66;88.02;98719.52;2884255;82;21004;-73
2021/12/10 06:48:48;;;;;;;107.70;65.40;;;;;;;1.69;87.82;98716.68;2884345;82;20992;-74
2021/12/10 06:52:51;;;;;;;106.07;66.70;;;;;;;1.75;87.72;98713.62;2884183;82;21012;-76
2021/12/10 06:56:53;;;;;;;129.78;79.77;;;;;;;1.79;87.51;98719.49;2884234;82;20973;-75
2021/12/10 07:01:03;;;;;;;136.92;101.02;;;;;;;1.80;87.08;98719.40;2884150;82;21016;-76
2021/12/10 07:05:06;;;;;;;107.55;68.37;;;;;;;1.85;86.87;98722.52;2873384;83;20982;-74
2021/12/10 07:09:12;;;;;;;109.12;63.87;;;;;;;1.62;87.52;98724.62;2884115;82;21003;-74
2021/12/10 07:13:15;;;;;;;96.75;61.28;;;;;;;1.24;89.72;98723.23;2884055;82;20988;-76
2021/12/10 07:17:17;;;;;;;157.10;88.97;;;;;;;1.17;90.71;98725.06;2883811;82;21051;-75
2021/12/10 07:21:19;;;;;;;170.43;93.82;;;;;;;1.19;90.93;98734.50;2884023;82;21003;-75
2021/12/10 07:25:21;;;;;;;127.17;70.22;;;;;;;1.24;91.39;98733.70;2884188;82;21042;-76
2021/12/10 07:29:23;;;;;;;112.57;68.22;;;;;;;1.17;91.85;98732.43;2883977;82;21024;-76
2021/12/10 07:33:25;;;;;;;110.63;65.45;;;;;;;1.20;91.98;98727.01;2883870;82;21087;-75
2021/12/10 07:37:26;;;;;;;111.35;66.47;;;;;;;1.31;91.70;98723.66;2883659;82;21048;-75
2021/12/10 07:41:28;;;;;;;126.75;75.95;;;;;;;1.32;91.70;98721.85;2883972;82;21004;-75
2021/12/10 07:45:30;;;;;;;126.70;72.55;;;;;;;1.41;91.59;98723.86;2884291;82;21493;-76
2021/12/10 07:49:32;;;;;;;114.45;66.30;;;;;;;1.39;91.82;98720.51;2884134;82;21011;-75
2021/12/10 07:53:37;;;;;;;110.30;65.12;;;;;;;1.51;91.60;98718.81;2884350;82;21529;-75
2021/12/10 07:57:40;;;;;;;98.67;59.65;;;;;;;1.68;91.21;98725.49;2884571;82;21023;-74
2021/12/10 08:01:42;;;;;;;98.70;58.23;;;;;;;1.71;91.06;98722.66;2884465;82;20957;-75
2021/12/10 08:05:44;;;;;;;93.35;57.05;;;;;;;1.76;91.02;98713.16;2884369;82;21008;-74
2021/12/10 08:09:46;;;;;;;107.92;65.92;;;;;;;1.75;91.24;98716.23;2884595;82;21647;-75
2021/12/10 08:13:50;;;;;;;164.43;99.60;;;;;;;1.78;91.20;98713.89;2884443;82;21035;-75
2021/12/10 08:17:51;;;;;;;197.45;122.02;;;;;;;1.83;91.19;98704.75;2884432;82;21561;-74
2021/12/10 08:21:54;;;;;;;108.22;73.80;;;;;;;1.90;90.96;98705.62;2884554;82;21691;-74
2021/12/10 08:25:56;;;;;;;111.37;61.73;;;;;;;1.97;90.89;98705.56;2884237;82;21008;-75
2021/12/10 08:30:03;;;;;;;91.60;59.48;;;;;;;2.02;90.64;98702.12;2884209;82;21123;-75
2021/12/10 08:34:01;;;;;;;129.55;71.35;;;;;;;2.16;90.56;98703.75;2875148;82;20998;-74
2021/12/10 08:38:03;;;;;;;185.30;102.02;;;;;;;2.38;90.14;98693.85;2890492;82;21027;-75
2021/12/10 08:42:06;;;;;;;162.85;99.25;;;;;;;2.54;88.82;98695.31;2876330;82;20975;-74
2021/12/10 08:46:11;;;;;;;191.65;111.97;;;;;;;2.53;88.67;98694.50;2890944;81;21023;-74
2021/12/10 08:50:16;;;;;;;164.07;85.40;;;;;;;2.62;88.54;98702.17;2877259;82;21010;-73
2021/12/10 08:54:20;;;;;;;169.87;102.32;;;;;;;2.82;88.33;98705.09;2892551;82;21028;-72
2021/12/10 08:58:23;;;;;;;113.68;66.37;;;;;;;2.87;87.45;98701.64;2878206;82;20963;-72
2021/12/10 09:02:25;;;;;;;95.92;58.90;;;;;;;2.73;87.92;98700.52;2892745;82;21044;-72
2021/12/10 09:06:30;;;;;;;139.72;78.87;;;;;;;2.80;87.39;98706.50;2878636;82;21073;-71
2021/12/10 09:10:37;;;;;;;125.80;73.33;;;;;;;2.89;87.27;98706.30;2893697;82;20944;-71
2021/12/10 09:14:45;;;;;;;79.50;47.78;;;;;;;2.96;87.22;98707.52;2879103;82;20967;-71
2021/12/10 09:18:45;;;;;;;;;;;;;;;2.99;86.97;98709.06;2895476;82;21079;-71
2021/12/10 09:22:48;;;;;;;120.82;73.25;;;;;;;3.09;86.67;98701.31;2841778;84;20117;-71
2021/12/10 09:26:56;;;;;;;73.45;41.25;;;;;;;3.22;87.02;98699.90;2878960;82;21034;-72
2021/12/10 09:31:02;;;;;;;76.87;49.25;;;;;;;3.27;87.02;98701.22;2891635;82;20972;-72
2021/12/10 09:35:07;;;;;;;;;;;;;;;3.61;87.15;98683.78;2878817;83;21044;-72
2021/12/10 09:39:10;;;;;;;84.92;51.45;;;;;;;3.86;85.62;98677.42;2876390;83;20081;-73
2021/12/10 09:43:14;;;;;;;64.62;39.03;;;;;;;4.09;85.46;98678.69;2886875;82;21526;-72
2021/12/10 09:47:17;;;;;;;55.55;36.38;;;;;;;4.33;84.67;98670.59;2837631;84;21047;-72
2021/12/10 09:51:30;;;;;;;106.55;65.12;;;;;;;4.50;83.76;98658.67;2886941;82;20996;-72
2021/12/10 09:55:33;;;;;;;87.02;53.25;;;;;;;4.43;81.19;98667.55;2887055;82;21538;-72
2021/12/10 09:59:39;;;;;;;56.65;36.60;;;;;;;4.09;81.48;98672.11;2886650;82;21007;-73
2021/12/10 10:03:45;;;;;;;73.07;52.65;;;;;;;3.87;82.98;98667.26;2886593;82;21023;-74
2021/12/10 10:07:51;;;;;;;115.72;72.40;;;;;;;3.65;83.97;98666.34;2886978;82;21020;-73
2021/12/10 10:11:58;;;;;;;74.85;48.63;;;;;;;3.60;84.37;98663.22;2886330;82;20960;-75
2021/12/10 10:16:00;;;;;;;130.25;76.87;;;;;;;3.61;84.08;98670.64;2886897;82;21035;-73
2021/12/10 10:20:05;;;;;;;209.75;118.80;;;;;;;3.68;84.65;98667.87;2887015;82;21035;-74
2021/12/10 10:24:07;;;;;;;199.87;110.35;;;;;;;3.85;84.41;98663.92;2886755;82;20996;-74
2021/12/10 10:28:11;;;;;;;208.70;116.70;;;;;;;3.90;83.88;98658.27;2886721;82;21054;-73
2021/12/10 10:32:17;;;;;;;79.70;47.05;;;;;;;4.04;83.46;98646.16;2886525;82;21003;-73
2021/12/10 10:36:23;;;;;;;67.70;41.92;;;;;;;4.06;83.47;98635.52;2887148;82;21034;-73
2021/12/10 10:40:28;;;;;;;;;;;;;;;4.09;83.50;98630.82;2889706;82;21039;-72
2021/12/10 10:44:30;;;;;;;51.08;33.28;;;;;;;4.24;83.44;98633.17;2835399;84;20126;-71
2021/12/10 10:48:33;;;;;;;58.02;33.45;;;;;;;4.39;83.00;98637.64;2835450;84;21015;-72
2021/12/10 10:52:39;;;;;;;42.10;28.85;;;;;;;4.47;82.64;98634.38;2835844;84;20984;-71
2021/12/10 10:56:46;;;;;;;80.95;47.58;;;;;;;4.49;82.37;98631.13;2836217;84;21031;-70
2021/12/10 11:01:09;;;;;;;249.88;127.07;;;;;;;4.59;81.81;98630.73;2886586;82;20957;-70
2021/12/10 11:05:11;;;;;;;642.08;358.27;;;;;;;4.67;82.06;98623.52;2885794;82;21027;-72
2021/12/10 11:09:21;;;;;;;453.15;216.88;;;;;;;4.57;81.77;98616.86;2885963;82;21023;-72
2021/12/10 11:13:25;;;;;;;117.37;58.25;;;;;;;4.50;81.77;98622.27;2886025;82;21063;-72
2021/12/10 11:17:34;;;;;;;62.80;35.60;;;;;;;4.30;81.85;98616.86;2886101;82;21019;-72
2021/12/10 11:22:02;;;;;;;72.00;41.70;;;;;;;4.10;82.35;98615.39;2886076;82;21003;-73
2021/12/10 11:26:04;;;;;;;54.58;34.48;;;;;;;4.17;82.73;98607.83;2886091;82;21027;-73
2021/12/10 11:30:20;;;;;;;57.85;33.08;;;;;;;4.15;82.91;98604.48;2886014;82;21027;-73
2021/12/10 11:34:43;;;;;;;112.10;65.37;;;;;;;4.10;82.81;98593.02;2890835;82;20999;-73
2021/12/10 11:38:49;;;;;;;683.77;354.20;;;;;;;3.82;83.73;98594.44;2891116;82;21035;-73
2021/12/10 11:42:57;;;;;;;623.28;330.18;;;;;;;3.58;84.29;98595.45;2890670;82;28138;-73
2021/12/10 11:51:20;;;;;;;71.45;38.08;;;;;;;3.46;85.22;98589.39;2891080;82;21011;-72
2021/12/10 11:55:22;;;;;;;57.05;34.73;;;;;;;3.44;85.31;98587.36;2891047;82;20984;-72
2021/12/10 11:59:32;;;;;;;47.62;28.20;;;;;;;3.43;85.24;98583.06;2890643;82;20999;-71
2021/12/10 12:03:35;;;;;;;69.95;31.20;;;;;;;3.41;84.92;98581.86;2887764;82;21063;-71
2021/12/10 12:07:46;;;;;;;62.73;32.20;;;;;;;3.32;85.42;98584.37;2889675;82;21054;-72
2021/12/10 12:12:10;;;;;;;65.78;37.10;;;;;;;3.17;86.04;98587.75;2889392;82;21012;-72
2021/12/10 12:16:16;;;;;;;207.52;104.03;;;;;;;3.08;86.61;98595.87;2889405;82;21052;-71
2021/12/10 12:20:32;;;;;;;370.35;195.15;;;;;;;3.08;86.77;98591.92;2889345;82;21019;-72
2021/12/10 12:29:07;;;;;;;71.75;35.70;;;;;;;3.00;86.56;98589.43;2837014;84;21059;-72
2021/12/10 12:33:10;;;;;;;82.63;46.33;;;;;;;3.02;86.37;98593.73;2836764;84;21524;-72
2021/12/10 12:37:14;;;;;;;68.90;38.50;;;;;;;3.10;86.21;98597.89;2836220;84;21043;-73
2021/12/10 12:41:22;;;;;;;62.27;34.35;;;;;;;3.04;86.08;98598.38;2887504;82;21603;-73
2021/12/10 12:45:26;;;;;;;113.83;63.13;;;;;;;3.10;85.66;98603.15;2887767;82;21019;-73
2021/12/10 12:49:33;;;;;;;107.12;57.55;;;;;;;3.18;85.25;98606.03;2888180;82;21054;-72
2021/12/10 12:53:36;;;;;;;99.37;56.02;;;;;;;3.21;84.20;98605.79;2884652;82;21035;-73
2021/12/10 12:58:16;;;;;;;56.10;36.48;;;;;;;3.35;84.06;98601.25;2887821;82;21027;-73
2021/12/10 13:02:22;;;;;;;87.60;47.67;;;;;;;3.34;83.72;98599.08;2887210;82;21027;-74
2021/12/10 13:06:30;;;;;;;75.97;41.50;;;;;;;3.50;83.52;98600.50;2887318;82;21027;-74
2021/12/10 13:10:34;;;;;;;43.83;23.00;;;;;;;3.41;82.04;98598.94;2887342;82;21568;-73
2021/12/10 13:15:00;;;;;;;28.92;19.82;;;;;;;3.40;82.50;98594.64;2887990;82;21020;-73
2021/12/10 13:19:04;;;;;;;29.00;15.85;;;;;;;3.00;82.62;98596.46;2887855;82;20956;-73
2021/12/10 13:23:10;;;;;;;18.02;14.85;;;;;;;2.65;84.23;98598.69;2888183;82;20976;-73
2021/12/10 13:27:13;;;;;;;;;;;;;;;2.50;85.01;98595.45;2890800;82;21015;-73
2021/12/10 13:31:17;;;;;;;35.80;18.27;;;;;;;2.30;85.31;98595.65;2836686;84;20125;-73
2021/12/10 13:35:22;;;;;;;33.35;18.87;;;;;;;2.19;85.81;98595.95;2837406;84;21015;-73
2021/12/10 13:39:24;;;;;;;35.52;20.82;;;;;;;2.14;86.35;98594.98;2837070;84;21015;-73
2021/12/10 13:43:28;;;;;;;28.80;20.97;;;;;;;2.18;86.04;98586.91;2837348;84;21043;-73
2021/12/10 13:47:51;;;;;;;63.83;40.03;;;;;;;2.21;85.65;98594.55;2837307;84;21559;-73
2021/12/10 13:51:52;;;;;;;74.42;47.23;;;;;;;2.21;85.33;98593.23;2836390;84;21039;-72
2021/12/10 13:55:59;;;;;;;36.88;22.95;;;;;;;2.32;85.66;98599.81;2889001;82;21024;-73
2021/12/10 14:00:05;;;;;;;36.28;19.40;;;;;;;2.51;84.56;98595.80;2837415;84;21067;-73
2021/12/10 14:04:17;;;;;;;29.98;20.02;;;;;;;2.62;83.16;98603.72;2837540;84;20996;-73
2021/12/10 14:08:18;;;;;;;35.58;20.70;;;;;;;2.58;82.65;98602.28;2839986;83;21080;-73
2021/12/10 14:12:42;;;;;;;34.75;23.22;;;;;;;2.42;83.50;98592.94;2838674;84;21021;-73
2021/12/10 14:16:54;;;;;;;43.23;26.07;;;;;;;2.25;84.54;98598.11;2888920;82;21066;-74
2021/12/10 14:21:09;;;;;;;50.25;27.80;;;;;;;2.13;85.40;98601.67;2889142;82;21484;-75
2021/12/10 14:25:25;;;;;;;54.00;33.45;;;;;;;1.97;84.92;98594.92;2889991;82;21047;-72
2021/12/10 14:29:27;;;;;;;41.30;26.90;;;;;;;1.79;85.55;98596.27;2888803;82;21594;-76
2021/12/10 14:33:48;;;;;;;57.98;33.15;;;;;;;1.58;86.90;98606.53;2890421;82;21051;-70
2021/12/10 14:38:01;;;;;;;33.83;21.30;;;;;;;1.48;87.11;98599.31;2901186;81;21017;-68
2021/12/10 14:42:12;;;;;;;34.73;18.15;;;;;;;1.38;86.28;98595.69;2841189;84;21583;-69
2021/12/10 14:46:36;;;;;;;32.55;18.52;;;;;;;1.26;86.61;98593.44;2840911;83;21054;-70
2021/12/10 14:50:42;;;;;;;32.05;19.87;;;;;;;1.20;86.67;98596.50;2840762;84;21042;-70
2021/12/10 14:55:10;;;;;;;41.33;22.30;;;;;;;1.23;87.12;98594.51;2837344;84;21093;-70
2021/12/10 14:59:36;;;;;;;35.38;22.67;;;;;;;1.37;87.04;98601.84;2849204;82;21019;-71
2021/12/10 15:03:46;;;;;;;38.38;23.18;;;;;;;1.43;85.89;98609.30;2871168;82;21056;-71
2021/12/10 15:07:48;;;;;;;29.12;18.98;;;;;;;1.48;85.89;98607.17;2881032;82;21046;-71
2021/12/10 15:11:56;;;;;;;29.60;18.98;;;;;;;1.42;85.30;98614.17;2880804;82;21022;-72
2021/12/10 15:16:10;;;;;;;33.15;19.37;;;;;;;1.44;85.22;98618.83;2864741;82;21033;-71
2021/12/10 15:20:29;;;;;;;31.15;19.55;;;;;;;1.43;85.29;98623.21;2879881;82;21029;-71
2021/12/10 15:24:47;;;;;;;29.65;18.62;;;;;;;1.36;85.00;98624.60;2863165;82;21041;-71
2021/12/10 15:28:49;;;;;;;30.37;20.25;;;;;;;1.42;85.03;98625.95;2876283;82;21017;-70
2021/12/10 15:32:59;;;;;;;34.00;20.55;;;;;;;1.48;84.61;98632.06;2854630;82;21062;-70
2021/12/10 15:37:02;;;;;;;31.17;20.65;;;;;;;1.53;83.85;98643.55;2858390;82;21030;-69
2021/12/10 15:41:21;;;;;;;41.60;24.27;;;;;;;1.51;83.00;98634.95;2864091;82;21086;-68
2021/12/10 15:45:27;;;;;;;33.58;22.40;;;;;;;1.46;82.69;98628.72;2877833;82;20995;-68
2021/12/10 15:49:30;;;;;;;39.73;25.88;;;;;;;1.26;83.64;98640.59;2875423;82;21003;-68
2021/12/10 15:53:43;;;;;;;53.25;35.38;;;;;;;1.07;83.66;98647.09;2837352;83;21034;-68
2021/12/10 15:57:47;;;;;;;42.65;31.23;;;;;;;0.93;83.36;98648.05;2840449;83;21069;-68
2021/12/10 16:01:51;;;;;;;51.70;28.65;;;;;;;0.79;83.61;98652.10;2872082;83;21022;-68
2021/12/10 16:06:03;;;;;;;48.87;23.15;;;;;;;0.72;83.34;98655.59;2872443;83;21069;-68
2021/12/10 16:10:16;;;;;;;57.27;28.20;;;;;;;0.55;83.43;98651.02;2863003;82;21045;-67
2021/12/10 16:14:19;;;;;;;48.33;27.27;;;;;;;0.30;84.89;98657.52;2859738;82;20947;-68
2021/12/10 16:18:25;;;;;;;50.52;29.35;;;;;;;0.09;85.25;98663.17;2841310;82;21061;-67
2021/12/10 16:22:29;;;;;;;;;;;;;;;-0.01;86.07;98670.31;2869681;82;20995;-68
2021/12/10 16:26:35;;;;;;;240.77;121.70;;;;;;;-0.08;87.16;98677.34;2876405;81;20120;-68
2021/12/10 16:30:44;;;;;;;;;;;;;;;-0.05;87.35;98679.30;2871718;82;21024;-68
2021/12/10 16:34:50;;;;;;;78.57;40.73;;;;;;;-0.01;85.60;98684.70;2835958;83;20126;-68
2021/12/10 16:38:56;;;;;;;47.45;27.73;;;;;;;0.06;85.33;98686.91;2879094;82;21079;-68
2021/12/10 16:43:09;;;;;;;49.33;27.48;;;;;;;0.11;85.47;98683.07;2834131;84;21011;-68
2021/12/10 16:47:16;;;;;;;53.85;31.93;;;;;;;0.12;85.48;98688.66;2866356;82;21003;-68
2021/12/10 16:51:26;;;;;;;69.50;38.33;;;;;;;0.26;84.67;98684.33;2880002;82;21015;-68
2021/12/10 16:55:34;;;;;;;53.45;34.27;;;;;;;0.27;83.39;98692.55;2879230;82;21562;-68
2021/12/10 16:59:38;;;;;;;45.55;24.82;;;;;;;0.17;83.39;98688.38;2879885;81;20995;-68
2021/12/10 17:03:41;;;;;;;54.83;35.92;;;;;;;0.01;84.02;98693.77;2879440;82;21010;-68
2021/12/10 17:07:45;;;;;;;322.50;168.47;;;;;;;0.06;83.76;98699.53;2879529;82;21018;-68
2021/12/10 17:11:55;;;;;;;161.03;81.30;;;;;;;-0.32;83.40;98674.05;2879765;82;21022;-68
2021/12/10 17:15:58;;;;;;;70.17;40.50;;;;;;;-0.13;83.53;98692.00;2882215;82;21034;-68
2021/12/10 17:20:31;;;;;;;63.65;33.30;;;;;;;-0.13;83.19;98688.08;2886459;82;20987;-68
2021/12/10 17:24:38;;;;;;;62.30;37.98;;;;;;;-0.16;82.58;98690.44;2929753;81;21338;-67
2021/12/10 17:28:45;;;;;;;91.05;41.65;;;;;;;-0.54;82.82;98691.05;2886605;82;21495;-68
2021/12/10 17:32:47;;;;;;;71.75;39.45;;;;;;;-1.12;84.73;98677.98;2885984;82;21053;-69
2021/12/10 17:36:57;;;;;;;67.75;35.63;;;;;;;-1.12;84.73;98677.98;2886274;82;21049;-68
2021/12/10 17:41:04;;;;;;;73.17;39.53;;;;;;;-1.32;85.82;98701.31;2886283;82;21037;-68
2021/12/10 17:45:11;;;;;;;59.05;33.33;;;;;;;-1.32;85.82;98701.31;2885451;82;21038;-67
2021/12/10 17:49:18;;;;;;;135.78;71.45;;;;;;;-1.44;85.04;98701.12;2885786;81;21007;-69
2021/12/10 17:53:20;;;;;;;76.22;42.30;;;;;;;-1.55;85.47;98706.58;2885656;82;21079;-68
2021/12/10 17:57:27;;;;;;;58.23;34.50;;;;;;;-1.50;85.66;98709.27;2886547;82;20961;-68
2021/12/10 18:01:49;;;;;;;53.50;33.55;;;;;;;-1.48;85.66;98723.55;2882450;82;20984;-68
2021/12/10 18:05:53;;;;;;;53.63;32.42;;;;;;;-1.53;85.26;98723.80;2877977;82;21509;-69
2021/12/10 18:09:57;;;;;;;52.33;28.42;;;;;;;-1.78;85.81;98729.55;2883659;82;20996;-69
2021/12/10 18:14:00;;;;;;;58.48;35.13;;;;;;;-1.91;86.77;98733.31;2886864;82;21425;-69
2021/12/10 18:18:07;;;;;;;60.00;31.97;;;;;;;-2.06;86.95;98729.34;2841883;82;21044;-68
2021/12/10 18:22:13;;;;;;;70.05;37.90;;;;;;;-2.18;87.22;98730.83;2881290;81;20972;-68
2021/12/10 18:26:17;;;;;;;72.67;42.43;;;;;;;-2.19;86.92;98737.44;2885815;82;20937;-69
2021/12/10 18:30:19;;;;;;;;;;;;;;;-2.36;87.02;98730.52;2888793;82;20937;-68
2021/12/10 18:34:25;;;;;;;67.65;39.88;;;;;;;-2.32;86.66;98739.88;2884813;82;20109;-69
2021/12/10 18:38:28;;;;;;;56.50;36.58;;;;;;;-2.26;86.33;98750.40;2884377;82;20953;-68
2021/12/10 18:42:37;;;;;;;67.30;35.65;;;;;;;-2.24;86.89;98750.70;2883975;82;21024;-68
2021/12/10 18:46:40;;;;;;;69.05;39.55;;;;;;;-2.10;88.47;98755.17;2841932;84;21018;-68
2021/12/10 18:51:10;;;;;;;74.20;39.63;;;;;;;-1.95;88.18;98743.09;2841720;84;21073;-68
2021/12/10 18:55:16;;;;;;;84.87;40.12;;;;;;;-2.00;88.05;98751.59;2829203;84;20986;-69
2021/12/10 18:59:23;;;;;;;78.30;44.45;;;;;;;-1.97;89.13;98753.20;2842081;84;21013;-68
2021/12/10 19:03:31;;;;;;;98.05;52.25;;;;;;;-1.97;89.04;98761.84;2841938;83;21042;-67
2021/12/10 19:07:40;;;;;;;73.45;47.17;;;;;;;-2.01;88.54;98752.08;2842007;84;21116;-68
2021/12/10 19:11:46;;;;;;;110.00;62.13;;;;;;;-1.95;88.16;98757.42;2841917;84;21086;-68
2021/12/10 19:15:53;;;;;;;98.97;50.25;;;;;;;-2.02;86.78;98763.88;2825695;84;21054;-69